sensor_id;sensor_type;location;lat;lon;timestamp;pressure;altitude;pressure_sealevel;temperature
37452;BMP280;23314;51.114;6.900;2022-12-05T00:00:58;101285.94;;;4.73
37452;BMP280;23314;51.114;6.900;2022-12-05T00:03:26;101292.69;;;4.70
37452;BMP280;23314;51.114;6.900;2022-12-05T00:05:51;101289.38;;;4.73
37452;BMP280;23314;51.114;6.900;2022-12-05T00:08:17;101289.69;;;4.72
37452;BMP280;23314;51.114;6.900;2022-12-05T00:10:42;101285.94;;;4.73
37452;BMP280;23314;51.114;6.900;2022-12-05T00:13:08;101290.13;;;4.74
37452;BMP280;23314;51.114;6.900;2022-12-05T00:15:38;101284.75;;;4.70
37452;BMP280;23314;51.114;6.900;2022-12-05T00:18:04;101293.06;;;4.69
37452;BMP280;23314;51.114;6.900;2022-12-05T00:20:29;101293.38;;;4.67
37452;BMP280;23314;51.114;6.900;2022-12-05T00:22:54;101296.81;;;4.68
37452;BMP280;23314;51.114;6.900;2022-12-05T00:25:20;101293.81;;;4.69
37452;BMP280;23314;51.114;6.900;2022-12-05T00:27:45;101297.97;;;4.70
37452;BMP280;23314;51.114;6.900;2022-12-05T00:30:11;101298.34;;;4.69
37452;BMP280;23314;51.114;6.900;2022-12-05T00:32:36;101298.22;;;4.65
37452;BMP280;23314;51.114;6.900;2022-12-05T00:35:01;101301.66;;;4.66
37452;BMP280;23314;51.114;6.900;2022-12-05T00:37:26;101295.59;;;4.65
37452;BMP280;23314;51.114;6.900;2022-12-05T00:39:52;101294.84;;;4.65
37452;BMP280;23314;51.114;6.900;2022-12-05T00:42:17;101305.00;;;4.63
37452;BMP280;23314;51.114;6.900;2022-12-05T00:44:42;101300.47;;;4.63
37452;BMP280;23314;51.114;6.900;2022-12-05T00:47:08;101298.50;;;4.60
37452;BMP280;23314;51.114;6.900;2022-12-05T00:49:33;101296.66;;;4.61
37452;BMP280;23314;51.114;6.900;2022-12-05T00:51:58;101296.38;;;4.66
37452;BMP280;23314;51.114;6.900;2022-12-05T00:54:24;101288.53;;;4.69
37452;BMP280;23314;51.114;6.900;2022-12-05T00:56:49;101296.44;;;4.69
37452;BMP280;23314;51.114;6.900;2022-12-05T00:59:20;101286.31;;;4.71
37452;BMP280;23314;51.114;6.900;2022-12-05T01:01:47;101292.34;;;4.72
37452;BMP280;23314;51.114;6.900;2022-12-05T01:04:15;101286.31;;;4.71
37452;BMP280;23314;51.114;6.900;2022-12-05T01:06:42;101287.50;;;4.74
37452;BMP280;23314;51.114;6.900;2022-12-05T01:09:09;101295.84;;;4.76
37452;BMP280;23314;51.114;6.900;2022-12-05T01:11:35;101281.53;;;4.77
37452;BMP280;23314;51.114;6.900;2022-12-05T01:14:00;101281.53;;;4.77
37452;BMP280;23314;51.114;6.900;2022-12-05T01:16:31;101292.88;;;4.78
37452;BMP280;23314;51.114;6.900;2022-12-05T01:18:58;101292.88;;;4.78
37452;BMP280;23314;51.114;6.900;2022-12-05T01:21:24;101293.97;;;4.77
37452;BMP280;23314;51.114;6.900;2022-12-05T01:23:49;101298.91;;;4.78
37452;BMP280;23314;51.114;6.900;2022-12-05T01:26:17;101302.34;;;4.79
37452;BMP280;23314;51.114;6.900;2022-12-05T01:28:42;101301.81;;;4.73
37452;BMP280;23314;51.114;6.900;2022-12-05T01:31:33;101303.03;;;4.76
37452;BMP280;23314;51.114;6.900;2022-12-05T01:34:00;101305.66;;;4.76
37452;BMP280;23314;51.114;6.900;2022-12-05T01:36:27;101300.81;;;4.78
37452;BMP280;23314;51.114;6.900;2022-12-05T01:38:53;101305.81;;;4.83
37452;BMP280;23314;51.114;6.900;2022-12-05T01:41:31;101309.63;;;4.85
37452;BMP280;23314;51.114;6.900;2022-12-05T01:44:03;101299.81;;;4.86
37452;BMP280;23314;51.114;6.900;2022-12-05T01:46:31;101302.34;;;4.79
37452;BMP280;23314;51.114;6.900;2022-12-05T01:49:15;101302.16;;;4.71
37452;BMP280;23314;51.114;6.900;2022-12-05T01:51:46;101304.72;;;4.68
37452;BMP280;23314;51.114;6.900;2022-12-05T01:54:14;101310.34;;;4.66
37452;BMP280;23314;51.114;6.900;2022-12-05T01:56:42;101310.00;;;4.68
37452;BMP280;23314;51.114;6.900;2022-12-05T01:59:09;101312.66;;;4.68
37452;BMP280;23314;51.114;6.900;2022-12-05T02:01:36;101318.78;;;4.72
37452;BMP280;23314;51.114;6.900;2022-12-05T02:04:02;101323.72;;;4.73
37452;BMP280;23314;51.114;6.900;2022-12-05T02:06:28;101306.41;;;4.76
37452;BMP280;23314;51.114;6.900;2022-12-05T02:08:54;101307.94;;;4.77
37452;BMP280;23314;51.114;6.900;2022-12-05T02:11:20;101313.25;;;4.77
37452;BMP280;23314;51.114;6.900;2022-12-05T02:14:08;101309.31;;;4.71
37452;BMP280;23314;51.114;6.900;2022-12-05T02:16:57;101309.66;;;4.69
37452;BMP280;23314;51.114;6.900;2022-12-05T02:27:43;101319.47;;;4.69
37452;BMP280;23314;51.114;6.900;2022-12-05T02:30:22;101318.69;;;4.68
37452;BMP280;23314;51.114;6.900;2022-12-05T02:35:30;101310.16;;;4.75
37452;BMP280;23314;51.114;6.900;2022-12-05T02:38:17;101305.56;;;4.72
37452;BMP280;23314;51.114;6.900;2022-12-05T02:43:35;101302.91;;;4.72
37452;BMP280;23314;51.114;6.900;2022-12-05T02:46:07;101303.78;;;4.76
37452;BMP280;23314;51.114;6.900;2022-12-05T02:48:34;101308.72;;;4.78
37452;BMP280;23314;51.114;6.900;2022-12-05T02:51:02;101310.59;;;4.77
37452;BMP280;23314;51.114;6.900;2022-12-05T02:53:29;101302.25;;;4.75
37452;BMP280;23314;51.114;6.900;2022-12-05T02:55:56;101309.41;;;4.74
37452;BMP280;23314;51.114;6.900;2022-12-05T02:58:24;101312.91;;;4.79
37452;BMP280;23314;51.114;6.900;2022-12-05T03:00:56;101315.88;;;4.77
37452;BMP280;23314;51.114;6.900;2022-12-05T03:03:22;101318.53;;;4.77
37452;BMP280;23314;51.114;6.900;2022-12-05T03:08:31;101326.13;;;4.79
37452;BMP280;23314;51.114;6.900;2022-12-05T03:10:59;101321.16;;;4.77
37452;BMP280;23314;51.114;6.900;2022-12-05T03:13:31;101330.31;;;4.80
37452;BMP280;23314;51.114;6.900;2022-12-05T03:16:02;101329.09;;;4.77
37452;BMP280;23314;51.114;6.900;2022-12-05T03:18:33;101337.81;;;4.78
37452;BMP280;23314;51.114;6.900;2022-12-05T03:21:07;101337.44;;;4.79
37452;BMP280;23314;51.114;6.900;2022-12-05T03:23:42;101341.34;;;4.85
37452;BMP280;23314;51.114;6.900;2022-12-05T03:32:10;101336.06;;;4.85
37452;BMP280;23314;51.114;6.900;2022-12-05T03:34:57;101331.97;;;4.88
37452;BMP280;23314;51.114;6.900;2022-12-05T03:37:40;101336.16;;;4.89
37452;BMP280;23314;51.114;6.900;2022-12-05T03:42:48;101330.00;;;5.01
37452;BMP280;23314;51.114;6.900;2022-12-05T03:45:17;101335.38;;;5.04
37452;BMP280;23314;51.114;6.900;2022-12-05T03:48:12;101330.16;;;5.08
37452;BMP280;23314;51.114;6.900;2022-12-05T03:50:40;101334.41;;;5.13
37452;BMP280;23314;51.114;6.900;2022-12-05T03:53:16;101336.00;;;5.17
37452;BMP280;23314;51.114;6.900;2022-12-05T03:55:43;101338.38;;;5.23
37452;BMP280;23314;51.114;6.900;2022-12-05T03:58:14;101335.41;;;5.24
37452;BMP280;23314;51.114;6.900;2022-12-05T04:00:44;101333.94;;;5.27
37452;BMP280;23314;51.114;6.900;2022-12-05T04:03:16;101341.44;;;5.25
37452;BMP280;23314;51.114;6.900;2022-12-05T04:05:49;101342.53;;;5.24
37452;BMP280;23314;51.114;6.900;2022-12-05T04:10:44;101344.44;;;5.23
37452;BMP280;23314;51.114;6.900;2022-12-05T04:13:38;101341.78;;;5.23
37452;BMP280;23314;51.114;6.900;2022-12-05T04:16:10;101338.38;;;5.23
37452;BMP280;23314;51.114;6.900;2022-12-05T04:19:02;101347.41;;;5.21
37452;BMP280;23314;51.114;6.900;2022-12-05T04:21:37;101345.56;;;5.22
37452;BMP280;23314;51.114;6.900;2022-12-05T04:24:33;101344.75;;;5.21
37452;BMP280;23314;51.114;6.900;2022-12-05T04:30:12;101353.47;;;5.22
37452;BMP280;23314;51.114;6.900;2022-12-05T04:35:18;101358.41;;;5.24
37452;BMP280;23314;51.114;6.900;2022-12-05T04:37:47;101358.84;;;5.26
37452;BMP280;23314;51.114;6.900;2022-12-05T04:40:20;101362.34;;;5.30
37452;BMP280;23314;51.114;6.900;2022-12-05T04:42:47;101366.16;;;5.32
37452;BMP280;23314;51.114;6.900;2022-12-05T04:45:16;101360.81;;;5.29
37452;BMP280;23314;51.114;6.900;2022-12-05T04:47:47;101361.16;;;5.27
37452;BMP280;23314;51.114;6.900;2022-12-05T04:50:15;101360.81;;;5.29
37452;BMP280;23314;51.114;6.900;2022-12-05T04:52:41;101358.59;;;5.31
37452;BMP280;23314;51.114;6.900;2022-12-05T04:55:16;101364.22;;;5.29
37452;BMP280;23314;51.114;6.900;2022-12-05T04:57:53;101363.09;;;5.30
37452;BMP280;23314;51.114;6.900;2022-12-05T05:00:19;101362.78;;;5.32
37452;BMP280;23314;51.114;6.900;2022-12-05T05:02:59;101365.06;;;5.33
37452;BMP280;23314;51.114;6.900;2022-12-05T05:05:28;101365.41;;;5.32
37452;BMP280;23314;51.114;6.900;2022-12-05T05:07:55;101371.38;;;5.29
37452;BMP280;23314;51.114;6.900;2022-12-05T05:10:44;101360.31;;;5.23
37452;BMP280;23314;51.114;6.900;2022-12-05T05:13:11;101368.94;;;5.20
37452;BMP280;23314;51.114;6.900;2022-12-05T05:15:36;101369.63;;;5.17
37452;BMP280;23314;51.114;6.900;2022-12-05T05:18:02;101367.66;;;5.14
37452;BMP280;23314;51.114;6.900;2022-12-05T05:20:27;101368.34;;;5.11
37452;BMP280;23314;51.114;6.900;2022-12-05T05:22:54;101379.59;;;5.08
37452;BMP280;23314;51.114;6.900;2022-12-05T05:25:20;101381.50;;;5.07
37452;BMP280;23314;51.114;6.900;2022-12-05T05:27:51;101376.91;;;5.04
37452;BMP280;23314;51.114;6.900;2022-12-05T05:30:17;101374.25;;;5.04
37452;BMP280;23314;51.114;6.900;2022-12-05T05:32:43;101380.63;;;5.03
37452;BMP280;23314;51.114;6.900;2022-12-05T05:35:09;101379.53;;;5.04
37452;BMP280;23314;51.114;6.900;2022-12-05T05:37:34;101379.59;;;5.08
37452;BMP280;23314;51.114;6.900;2022-12-05T05:39:59;101377.41;;;5.10
37452;BMP280;23314;51.114;6.900;2022-12-05T05:42:24;101382.34;;;5.11
37452;BMP280;23314;51.114;6.900;2022-12-05T05:44:50;101389.50;;;5.11
37452;BMP280;23314;51.114;6.900;2022-12-05T05:47:15;101390.19;;;5.08
37452;BMP280;23314;51.114;6.900;2022-12-05T05:49:40;101390.53;;;5.06
37452;BMP280;23314;51.114;6.900;2022-12-05T05:52:06;101391.72;;;5.09
37452;BMP280;23314;51.114;6.900;2022-12-05T05:54:31;101385.00;;;5.11
37452;BMP280;23314;51.114;6.900;2022-12-05T05:56:56;101390.28;;;5.11
37452;BMP280;23314;51.114;6.900;2022-12-05T05:59:22;101394.47;;;5.12
37452;BMP280;23314;51.114;6.900;2022-12-05T06:01:47;101390.72;;;5.13
37452;BMP280;23314;51.114;6.900;2022-12-05T06:04:12;101396.00;;;5.13
37452;BMP280;23314;51.114;6.900;2022-12-05T06:06:39;101400.66;;;5.20
37452;BMP280;23314;51.114;6.900;2022-12-05T06:09:06;101397.41;;;5.27
37452;BMP280;23314;51.114;6.900;2022-12-05T06:11:31;101403.25;;;5.16
37452;BMP280;23314;51.114;6.900;2022-12-05T06:13:58;101405.63;;;5.05
37452;BMP280;23314;51.114;6.900;2022-12-05T06:16:27;101405.53;;;5.02
37452;BMP280;23314;51.114;6.900;2022-12-05T06:18:52;101402.59;;;5.03
37452;BMP280;23314;51.114;6.900;2022-12-05T06:21:19;101401.03;;;5.02
37452;BMP280;23314;51.114;6.900;2022-12-05T06:23:44;101404.44;;;5.03
37452;BMP280;23314;51.114;6.900;2022-12-05T06:26:15;101399.94;;;5.03
37452;BMP280;23314;51.114;6.900;2022-12-05T06:28:40;101407.16;;;5.07
37452;BMP280;23314;51.114;6.900;2022-12-05T06:31:15;101402.97;;;5.05
37452;BMP280;23314;51.114;6.900;2022-12-05T06:33:41;101405.97;;;5.04
37452;BMP280;23314;51.114;6.900;2022-12-05T06:36:12;101405.22;;;5.03
37452;BMP280;23314;51.114;6.900;2022-12-05T06:38:38;101408.97;;;5.02
37452;BMP280;23314;51.114;6.900;2022-12-05T06:41:07;101419.91;;;5.01
37452;BMP280;23314;51.114;6.900;2022-12-05T06:43:33;101418.63;;;4.95
37452;BMP280;23314;51.114;6.900;2022-12-05T06:46:00;101421.19;;;4.91
37452;BMP280;23314;51.114;6.900;2022-12-05T06:48:28;101422.63;;;4.88
37452;BMP280;23314;51.114;6.900;2022-12-05T06:50:53;101416.91;;;4.86
37452;BMP280;23314;51.114;6.900;2022-12-05T06:53:18;101425.53;;;4.83
37452;BMP280;23314;51.114;6.900;2022-12-05T06:55:44;101425.53;;;4.83
37452;BMP280;23314;51.114;6.900;2022-12-05T06:58:09;101425.13;;;4.81
37452;BMP280;23314;51.114;6.900;2022-12-05T07:00:35;101429.22;;;4.79
37452;BMP280;23314;51.114;6.900;2022-12-05T07:03:19;101421.19;;;4.75
37452;BMP280;23314;51.114;6.900;2022-12-05T07:05:44;101428.34;;;4.91
37452;BMP280;23314;51.114;6.900;2022-12-05T07:08:09;101430.72;;;4.96
37452;BMP280;23314;51.114;6.900;2022-12-05T07:10:35;101434.63;;;4.86
37452;BMP280;23314;51.114;6.900;2022-12-05T07:13:00;101440.63;;;4.99
37452;BMP280;23314;51.114;6.900;2022-12-05T07:15:25;101439.88;;;4.98
37452;BMP280;23314;51.114;6.900;2022-12-05T07:17:50;101444.09;;;5.03
37452;BMP280;23314;51.114;6.900;2022-12-05T07:20:16;101451.63;;;5.01
37452;BMP280;23314;51.114;6.900;2022-12-05T07:22:42;101449.75;;;4.85
37452;BMP280;23314;51.114;6.900;2022-12-05T07:25:08;101442.66;;;4.73
37452;BMP280;23314;51.114;6.900;2022-12-05T07:27:33;101445.13;;;4.66
37452;BMP280;23314;51.114;6.900;2022-12-05T07:29:58;101465.69;;;4.89
37452;BMP280;23314;51.114;6.900;2022-12-05T07:32:24;101461.63;;;4.92
37452;BMP280;23314;51.114;6.900;2022-12-05T07:34:49;101463.91;;;4.93
37452;BMP280;23314;51.114;6.900;2022-12-05T07:37:14;101462.63;;;5.03
37452;BMP280;23314;51.114;6.900;2022-12-05T07:39:40;101464.94;;;5.04
37452;BMP280;23314;51.114;6.900;2022-12-05T07:42:05;101457.16;;;4.96
37452;BMP280;23314;51.114;6.900;2022-12-05T07:44:31;101467.47;;;4.85
37452;BMP280;23314;51.114;6.900;2022-12-05T07:46:56;101468.69;;;4.87
37452;BMP280;23314;51.114;6.900;2022-12-05T07:49:22;101469.13;;;4.89
37452;BMP280;23314;51.114;6.900;2022-12-05T07:51:47;101471.94;;;4.81
37452;BMP280;23314;51.114;6.900;2022-12-05T07:54:12;101466.63;;;4.97
37452;BMP280;23314;51.114;6.900;2022-12-05T07:56:37;101472.72;;;4.97
37452;BMP280;23314;51.114;6.900;2022-12-05T07:59:03;101475.50;;;4.88
37452;BMP280;23314;51.114;6.900;2022-12-05T08:01:28;101475.41;;;4.85
37452;BMP280;23314;51.114;6.900;2022-12-05T08:03:56;101480.47;;;5.06
37452;BMP280;23314;51.114;6.900;2022-12-05T08:06:25;101483.63;;;5.12
37452;BMP280;23314;51.114;6.900;2022-12-05T08:08:50;101484.22;;;5.05
37452;BMP280;23314;51.114;6.900;2022-12-05T08:11:19;101487.91;;;5.00
37452;BMP280;23314;51.114;6.900;2022-12-05T08:13:44;101489.00;;;4.99
37452;BMP280;23314;51.114;6.900;2022-12-05T08:16:12;101488.47;;;4.94
37452;BMP280;23314;51.114;6.900;2022-12-05T08:18:38;101486.59;;;4.94
37452;BMP280;23314;51.114;6.900;2022-12-05T08:21:05;101487.34;;;4.95
37452;BMP280;23314;51.114;6.900;2022-12-05T08:23:31;101490.34;;;4.93
37452;BMP280;23314;51.114;6.900;2022-12-05T08:26:05;101499.81;;;4.94
37452;BMP280;23314;51.114;6.900;2022-12-05T08:28:31;101494.19;;;4.96
37452;BMP280;23314;51.114;6.900;2022-12-05T08:31:15;101511.59;;;4.97
37452;BMP280;23314;51.114;6.900;2022-12-05T08:33:41;101498.38;;;4.97
37452;BMP280;23314;51.114;6.900;2022-12-05T08:36:09;101514.34;;;5.00
37452;BMP280;23314;51.114;6.900;2022-12-05T08:38:35;101510.16;;;4.99
37452;BMP280;23314;51.114;6.900;2022-12-05T08:41:01;101516.59;;;5.02
37452;BMP280;23314;51.114;6.900;2022-12-05T08:43:28;101514.66;;;4.99
37452;BMP280;23314;51.114;6.900;2022-12-05T08:45:53;101525.25;;;4.99
37452;BMP280;23314;51.114;6.900;2022-12-05T08:48:21;101536.59;;;4.99
37452;BMP280;23314;51.114;6.900;2022-12-05T08:50:46;101532.91;;;5.04
37452;BMP280;23314;51.114;6.900;2022-12-05T08:53:12;101528.94;;;5.10
37452;BMP280;23314;51.114;6.900;2022-12-05T08:55:37;101529.78;;;5.14
37452;BMP280;23314;51.114;6.900;2022-12-05T08:58:03;101528.75;;;5.19
37452;BMP280;23314;51.114;6.900;2022-12-05T09:00:28;101535.22;;;5.21
37452;BMP280;23314;51.114;6.900;2022-12-05T09:02:53;101535.31;;;5.25
37452;BMP280;23314;51.114;6.900;2022-12-05T09:05:19;101538.06;;;5.29
37452;BMP280;23314;51.114;6.900;2022-12-05T09:07:45;101532.53;;;5.34
37452;BMP280;23314;51.114;6.900;2022-12-05T09:10:11;101527.72;;;5.40
37452;BMP280;23314;51.114;6.900;2022-12-05T09:12:36;101534.63;;;5.44
37452;BMP280;23314;51.114;6.900;2022-12-05T09:15:02;101529.44;;;5.48
37452;BMP280;23314;51.114;6.900;2022-12-05T09:17:28;101530.66;;;5.54
37452;BMP280;23314;51.114;6.900;2022-12-05T09:19:53;101540.69;;;5.61
37452;BMP280;23314;51.114;6.900;2022-12-05T09:22:18;101537.44;;;5.67
37452;BMP280;23314;51.114;6.900;2022-12-05T09:24:43;101545.44;;;5.71
37452;BMP280;23314;51.114;6.900;2022-12-05T09:27:09;101549.72;;;5.76
37452;BMP280;23314;51.114;6.900;2022-12-05T09:29:34;101554.31;;;5.79
37452;BMP280;23314;51.114;6.900;2022-12-05T09:31:59;101546.47;;;5.82
37452;BMP280;23314;51.114;6.900;2022-12-05T09:34:25;101548.03;;;5.87
37452;BMP280;23314;51.114;6.900;2022-12-05T09:36:51;101548.53;;;5.93
37452;BMP280;23314;51.114;6.900;2022-12-05T09:39:17;101553.59;;;5.98
37452;BMP280;23314;51.114;6.900;2022-12-05T09:42:08;101553.22;;;5.99
37452;BMP280;23314;51.114;6.900;2022-12-05T09:47:52;101531.28;;;5.99
37452;BMP280;23314;51.114;6.900;2022-12-05T09:53:01;101546.00;;;5.96
37452;BMP280;23314;51.114;6.900;2022-12-05T09:55:50;101548.97;;;5.95
37452;BMP280;23314;51.114;6.900;2022-12-05T09:58:27;101547.84;;;5.96
37452;BMP280;23314;51.114;6.900;2022-12-05T10:01:30;101547.72;;;5.89
37452;BMP280;23314;51.114;6.900;2022-12-05T10:12:08;101544.19;;;5.65
37452;BMP280;23314;51.114;6.900;2022-12-05T10:14:51;101540.75;;;5.64
37452;BMP280;23314;51.114;6.900;2022-12-05T10:17:30;101539.16;;;5.60
37452;BMP280;23314;51.114;6.900;2022-12-05T10:19:59;101546.22;;;5.56
37452;BMP280;23314;51.114;6.900;2022-12-05T10:22:38;101544.22;;;5.49
37452;BMP280;23314;51.114;6.900;2022-12-05T10:25:08;101545.56;;;5.43
37452;BMP280;23314;51.114;6.900;2022-12-05T10:27:40;101542.41;;;5.37
37452;BMP280;23314;51.114;6.900;2022-12-05T10:30:15;101540.88;;;5.36
37452;BMP280;23314;51.114;6.900;2022-12-05T10:32:54;101543.44;;;5.32
37452;BMP280;23314;51.114;6.900;2022-12-05T10:37:50;101549.50;;;5.33
37452;BMP280;23314;51.114;6.900;2022-12-05T10:40:16;101549.16;;;5.34
37452;BMP280;23314;51.114;6.900;2022-12-05T10:42:42;101551.09;;;5.38
37452;BMP280;23314;51.114;6.900;2022-12-05T10:45:22;101554.94;;;5.40
37452;BMP280;23314;51.114;6.900;2022-12-05T10:47:52;101561.09;;;5.44
37452;BMP280;23314;51.114;6.900;2022-12-05T10:50:31;101560.41;;;5.47
37452;BMP280;23314;51.114;6.900;2022-12-05T10:52:59;101557.09;;;5.50
37452;BMP280;23314;51.114;6.900;2022-12-05T10:55:35;101562.38;;;5.50
37452;BMP280;23314;51.114;6.900;2022-12-05T11:00:34;101560.66;;;5.58
37452;BMP280;23314;51.114;6.900;2022-12-05T11:03:02;101555.47;;;5.62
37452;BMP280;23314;51.114;6.900;2022-12-05T11:05:30;101545.31;;;5.64
37452;BMP280;23314;51.114;6.900;2022-12-05T11:07:57;101552.53;;;5.67
37452;BMP280;23314;51.114;6.900;2022-12-05T11:10:30;101545.09;;;5.73
37452;BMP280;23314;51.114;6.900;2022-12-05T11:12:57;101553.91;;;5.77
37452;BMP280;23314;51.114;6.900;2022-12-05T11:15:25;101551.66;;;5.79
37452;BMP280;23314;51.114;6.900;2022-12-05T11:17:54;101551.41;;;5.84
37452;BMP280;23314;51.114;6.900;2022-12-05T11:22:47;101545.22;;;5.96
37452;BMP280;23314;51.114;6.900;2022-12-05T11:25:29;101549.88;;;6.03
37452;BMP280;23314;51.114;6.900;2022-12-05T11:33:25;101552.41;;;6.15
37452;BMP280;23314;51.114;6.900;2022-12-05T11:35:53;101544.94;;;6.21
37452;BMP280;23314;51.114;6.900;2022-12-05T11:38:23;101545.31;;;6.19
37452;BMP280;23314;51.114;6.900;2022-12-05T11:51:57;101546.47;;;6.02
37452;BMP280;23314;51.114;6.900;2022-12-05T11:54:48;101541.53;;;6.01
37452;BMP280;23314;51.114;6.900;2022-12-05T11:57:30;101529.38;;;5.99
37452;BMP280;23314;51.114;6.900;2022-12-05T12:03:10;101533.59;;;6.01
37452;BMP280;23314;51.114;6.900;2022-12-05T12:08:27;101535.00;;;6.14
37452;BMP280;23314;51.114;6.900;2022-12-05T12:11:20;101546.47;;;6.22
37452;BMP280;23314;51.114;6.900;2022-12-05T12:14:13;101545.94;;;6.32
37452;BMP280;23314;51.114;6.900;2022-12-05T12:19:42;101539.84;;;6.51
37452;BMP280;23314;51.114;6.900;2022-12-05T12:24:52;101542.09;;;6.72
37452;BMP280;23314;51.114;6.900;2022-12-05T12:30:23;101533.94;;;6.81
37452;BMP280;23314;51.114;6.900;2022-12-05T12:33:07;101530.53;;;6.81
37452;BMP280;23314;51.114;6.900;2022-12-05T12:35:55;101532.75;;;6.79
37452;BMP280;23314;51.114;6.900;2022-12-05T12:44:29;101532.63;;;6.71
37452;BMP280;23314;51.114;6.900;2022-12-05T12:47:03;101529.84;;;6.64
37452;BMP280;23314;51.114;6.900;2022-12-05T12:49:47;101530.72;;;6.49
37452;BMP280;23314;51.114;6.900;2022-12-05T12:52:17;101532.47;;;6.41
37452;BMP280;23314;51.114;6.900;2022-12-05T12:57:58;101526.69;;;6.35
37452;BMP280;23314;51.114;6.900;2022-12-05T13:00:56;101525.38;;;6.25
37452;BMP280;23314;51.114;6.900;2022-12-05T13:03:40;101527.94;;;6.22
37452;BMP280;23314;51.114;6.900;2022-12-05T13:06:19;101525.91;;;6.15
37452;BMP280;23314;51.114;6.900;2022-12-05T13:08:58;101522.78;;;6.09
37452;BMP280;23314;51.114;6.900;2022-12-05T13:11:28;101523.13;;;6.08
37452;BMP280;23314;51.114;6.900;2022-12-05T13:13:59;101522.69;;;6.06
37452;BMP280;23314;51.114;6.900;2022-12-05T13:16:30;101523.06;;;6.04
37452;BMP280;23314;51.114;6.900;2022-12-05T13:18:57;101530.63;;;6.06
37452;BMP280;23314;51.114;6.900;2022-12-05T13:21:23;101527.56;;;6.04
37452;BMP280;23314;51.114;6.900;2022-12-05T13:23:52;101518.88;;;6.03
37452;BMP280;23314;51.114;6.900;2022-12-05T13:26:20;101519.97;;;6.02
37452;BMP280;23314;51.114;6.900;2022-12-05T13:28:52;101519.56;;;6.00
37452;BMP280;23314;51.114;6.900;2022-12-05T13:31:19;101526.69;;;5.96
37452;BMP280;23314;51.114;6.900;2022-12-05T13:33:57;101528.47;;;5.92
37452;BMP280;23314;51.114;6.900;2022-12-05T13:36:23;101528.47;;;5.92
37452;BMP280;23314;51.114;6.900;2022-12-05T13:41:57;101532.50;;;5.86
37452;BMP280;23314;51.114;6.900;2022-12-05T13:44:51;101532.09;;;5.83
37452;BMP280;23314;51.114;6.900;2022-12-05T13:49:59;101536.47;;;5.76
37452;BMP280;23314;51.114;6.900;2022-12-05T13:52:29;101525.88;;;5.76
37452;BMP280;23314;51.114;6.900;2022-12-05T13:55:13;101532.72;;;5.77
37452;BMP280;23314;51.114;6.900;2022-12-05T14:07:45;101543.88;;;5.70
37452;BMP280;23314;51.114;6.900;2022-12-05T14:12:47;101533.84;;;5.60
37452;BMP280;23314;51.114;6.900;2022-12-05T14:15:43;101540.09;;;5.51
37452;BMP280;23314;51.114;6.900;2022-12-05T14:23:54;101545.31;;;5.32
37452;BMP280;23314;51.114;6.900;2022-12-05T14:32:27;101551.63;;;5.11
37452;BMP280;23314;51.114;6.900;2022-12-05T14:34:56;101548.19;;;5.11
37452;BMP280;23314;51.114;6.900;2022-12-05T14:37:37;101555.94;;;5.03
37452;BMP280;23314;51.114;6.900;2022-12-05T14:40:17;101558.06;;;4.98
37452;BMP280;23314;51.114;6.900;2022-12-05T14:43:00;101555.25;;;4.91
37452;BMP280;23314;51.114;6.900;2022-12-05T14:45:35;101555.94;;;4.87
37452;BMP280;23314;51.114;6.900;2022-12-05T14:48:04;101552.63;;;4.91
37452;BMP280;23314;51.114;6.900;2022-12-05T14:50:43;101556.09;;;4.95
37452;BMP280;23314;51.114;6.900;2022-12-05T14:53:38;101559.00;;;4.89
37452;BMP280;23314;51.114;6.900;2022-12-05T14:58:53;101568.75;;;5.17
37452;BMP280;23314;51.114;6.900;2022-12-05T15:01:41;101570.66;;;5.17
37452;BMP280;23314;51.114;6.900;2022-12-05T15:06:51;101575.44;;;5.11
37452;BMP280;23314;51.114;6.900;2022-12-05T15:09:30;101577.59;;;4.93
37452;BMP280;23314;51.114;6.900;2022-12-05T15:11:58;101578.09;;;4.83
37452;BMP280;23314;51.114;6.900;2022-12-05T15:14:27;101575.69;;;4.78
37452;BMP280;23314;51.114;6.900;2022-12-05T15:16:54;101581.13;;;4.69
37452;BMP280;23314;51.114;6.900;2022-12-05T15:19:52;101582.47;;;4.63
37452;BMP280;23314;51.114;6.900;2022-12-05T15:22:21;101574.78;;;4.57
37452;BMP280;23314;51.114;6.900;2022-12-05T15:24:48;101578.09;;;4.54
37452;BMP280;23314;51.114;6.900;2022-12-05T15:27:13;101585.13;;;4.50
37452;BMP280;23314;51.114;6.900;2022-12-05T15:29:40;101583.88;;;4.44
37452;BMP280;23314;51.114;6.900;2022-12-05T15:47:45;101604.25;;;4.06
37452;BMP280;23314;51.114;6.900;2022-12-05T15:50:15;101594.69;;;4.02
37452;BMP280;23314;51.114;6.900;2022-12-05T15:55:22;101601.06;;;4.01
37452;BMP280;23314;51.114;6.900;2022-12-05T15:57:54;101606.34;;;4.01
37452;BMP280;23314;51.114;6.900;2022-12-05T16:00:22;101606.34;;;4.01
37452;BMP280;23314;51.114;6.900;2022-12-05T16:03:02;101607.44;;;4.00
37452;BMP280;23314;51.114;6.900;2022-12-05T16:06:08;101616.91;;;4.01
37452;BMP280;23314;51.114;6.900;2022-12-05T16:08:26;101621.00;;;3.98
37452;BMP280;23314;51.114;6.900;2022-12-05T16:11:08;101612.19;;;3.94
37452;BMP280;23314;51.114;6.900;2022-12-05T16:13:34;101620.09;;;3.94
37452;BMP280;23314;51.114;6.900;2022-12-05T16:16:00;101615.59;;;3.94
37452;BMP280;23314;51.114;6.900;2022-12-05T16:18:30;101614.50;;;3.95
37452;BMP280;23314;51.114;6.900;2022-12-05T16:20:56;101614.91;;;3.97
37452;BMP280;23314;51.114;6.900;2022-12-05T16:23:27;101608.13;;;3.96
37452;BMP280;23314;51.114;6.900;2022-12-05T16:26:09;101610.31;;;3.94
37452;BMP280;23314;51.114;6.900;2022-12-05T16:28:39;101616.03;;;3.96
37452;BMP280;23314;51.114;6.900;2022-12-05T16:31:05;101622.41;;;3.95
37452;BMP280;23314;51.114;6.900;2022-12-05T16:33:31;101620.19;;;3.97
37452;BMP280;23314;51.114;6.900;2022-12-05T16:36:10;101622.53;;;3.99
37452;BMP280;23314;51.114;6.900;2022-12-05T16:38:36;101623.72;;;4.02
37452;BMP280;23314;51.114;6.900;2022-12-05T16:41:05;101631.31;;;4.03
37452;BMP280;23314;51.114;6.900;2022-12-05T16:48:28;101636.69;;;4.07
37452;BMP280;23314;51.114;6.900;2022-12-05T16:53:38;101635.59;;;4.08
37452;BMP280;23314;51.114;6.900;2022-12-05T16:56:05;101642.41;;;4.09
37452;BMP280;23314;51.114;6.900;2022-12-05T16:58:31;101639.03;;;4.08
37452;BMP280;23314;51.114;6.900;2022-12-05T17:01:03;101639.34;;;4.07
37452;BMP280;23314;51.114;6.900;2022-12-05T17:03:30;101633.75;;;4.08